Aérodrome :
LOGIN :

S'inscrire | Disclaimer

   EN    FR    IT 

 










Légende :    VFR   VFR Marginal   IFR   IFR Intensif   IFR Très Intensif
Visi : 
Plafond : 
>= 8 km
>= 3000ft
5 à 8 km
1000 à 3000 ft
1500m à 5 km
500 à 1000 ft
800 à 1500m
200 à 500 ft
< 800m
< 200 ft
Symboles :   Orages  Brouillard  Fortes neiges  Fortes précipitations  Vent > 20 kt
SIGMETs :   Divers  Orages  Givrage  Turbulence  Onde Orograph.  Cendres Volcan.







- Altitude de l'aérodrome : 160 ft
- Code IATA : FMO


EDDG - Münster Osnabrück Int.

DERNIER METAR :
  • 231820Z 25010KT 8000 -DZ SCT009 BKN012 11/11 Q1020 TEMPO BKN008

METARs EXPIRÉS :
  • 231750Z 26012KT 4000 -DZ SCT007 BKN012 11/11 Q1019 TEMPO 6000 BKN008
  • 231720Z 26011KT 9000 -DZ FEW004 BKN007 11/11 Q1019 TEMPO BKN012
  • 231650Z 25012KT 4000 -RADZ FEW004 BKN007 11/11 Q1019 TEMPO 25015G25KT BKN012
  • 231620Z 26011KT 4000 -RADZ FEW005 BKN008 11/11 Q1019 TEMPO 25015G25KT BKN012
  • 231550Z 27014KT 4000 -RADZ FEW005 BKN008 11/11 Q1019 REDZ TEMPO 25015G25KT 5000 NSW BKN012

TAF TAF EDDG
Valide du 23 à 18h jusqu'au 24 à 18h UTC


231700Z 2318/2418 27013KT 6000 BKN008
BECMG 2318/2321 BKN012
TEMPO 2323/2408 27015G25KT 4000 -DZ BR BKN008
PROB30
TEMPO 2323/2406 2800 DZ BKN004
BECMG 2409/2411 BKN020
BECMG 2412/2414 29008KT
Pas de NOTAMs connus pour ce terrain.



MET'MAP, la Météo Aéronautique d'un coup d'oeil ! - Copyright ORBIFLY Décembre 2007 - Disclaimer

ORBIFLY MET'MAP TEAM :

Programmation & Développement : Alexandra Zaïnal
Conception & Développement : Baudouin d'Aumeries
Co-Programmation & Développement : Marc-Olivier Méhu
Soutien technique & logistique : Manuel Goepfert

Contact : metmap@orbifly.com




SOURCES & CREDITS :

   NOAA